sensor_id;sensor_type;location;lat;lon;timestamp;pressure;altitude;pressure_sealevel;temperature;humidity
10474;BME280;5284;50.446;7.904;2023-10-13T00:03:05;98348.97;;;16.01;100.00
10474;BME280;5284;50.446;7.904;2023-10-13T00:08:09;98335.19;;;16.04;100.00
10474;BME280;5284;50.446;7.904;2023-10-13T00:13:13;98332.16;;;16.07;100.00
10474;BME280;5284;50.446;7.904;2023-10-13T00:18:17;98339.72;;;16.12;100.00
10474;BME280;5284;50.446;7.904;2023-10-13T00:23:21;98334.16;;;16.13;100.00
10474;BME280;5284;50.446;7.904;2023-10-13T00:28:27;98334.84;;;16.15;100.00
10474;BME280;5284;50.446;7.904;2023-10-13T00:33:37;98325.44;;;16.19;100.00
10474;BME280;5284;50.446;7.904;2023-10-13T00:38:43;98312.66;;;16.21;100.00
10474;BME280;5284;50.446;7.904;2023-10-13T00:43:51;98309.78;;;16.23;100.00
10474;BME280;5284;50.446;7.904;2023-10-13T00:49:07;98320.03;;;16.27;100.00
10474;BME280;5284;50.446;7.904;2023-10-13T00:54:11;98314.31;;;16.30;100.00
10474;BME280;5284;50.446;7.904;2023-10-13T00:59:16;98304.56;;;16.37;100.00
10474;BME280;5284;50.446;7.904;2023-10-13T01:04:25;98308.91;;;16.46;100.00
10474;BME280;5284;50.446;7.904;2023-10-13T01:09:40;98323.22;;;16.47;100.00
10474;BME280;5284;50.446;7.904;2023-10-13T01:14:45;98323.88;;;16.49;100.00
10474;BME280;5284;50.446;7.904;2023-10-13T01:19:51;98311.75;;;16.53;100.00
10474;BME280;5284;50.446;7.904;2023-10-13T01:25:01;98314.75;;;16.58;100.00
10474;BME280;5284;50.446;7.904;2023-10-13T01:30:14;98307.19;;;16.61;100.00
10474;BME280;5284;50.446;7.904;2023-10-13T01:35:24;98295.75;;;16.59;100.00
10474;BME280;5284;50.446;7.904;2023-10-13T01:40:38;98297.44;;;16.60;100.00
10474;BME280;5284;50.446;7.904;2023-10-13T01:45:41;98288.69;;;16.58;100.00
10474;BME280;5284;50.446;7.904;2023-10-13T01:50:48;98272.69;;;16.57;100.00
10474;BME280;5284;50.446;7.904;2023-10-13T01:55:59;98277.06;;;16.58;100.00
10474;BME280;5284;50.446;7.904;2023-10-13T02:01:08;98266.47;;;16.56;100.00
10474;BME280;5284;50.446;7.904;2023-10-13T02:06:12;98260.59;;;16.53;100.00
10474;BME280;5284;50.446;7.904;2023-10-13T02:11:21;98248.34;;;16.50;100.00
10474;BME280;5284;50.446;7.904;2023-10-13T02:16:23;98233.88;;;16.43;100.00
10474;BME280;5284;50.446;7.904;2023-10-13T02:21:27;98239.09;;;16.45;100.00
10474;BME280;5284;50.446;7.904;2023-10-13T02:26:34;98236.22;;;16.46;100.00
10474;BME280;5284;50.446;7.904;2023-10-13T02:31:43;98228.31;;;16.45;100.00
10474;BME280;5284;50.446;7.904;2023-10-13T02:36:57;98214.00;;;16.44;100.00
10474;BME280;5284;50.446;7.904;2023-10-13T02:42:01;98191.00;;;16.42;100.00
10474;BME280;5284;50.446;7.904;2023-10-13T02:47:09;98198.91;;;16.35;100.00
10474;BME280;5284;50.446;7.904;2023-10-13T02:52:16;98195.72;;;16.24;100.00
10474;BME280;5284;50.446;7.904;2023-10-13T02:57:20;98192.22;;;16.23;100.00
10474;BME280;5284;50.446;7.904;2023-10-13T03:02:25;98182.16;;;16.17;100.00
10474;BME280;5284;50.446;7.904;2023-10-13T03:07:30;98176.06;;;16.15;100.00
10474;BME280;5284;50.446;7.904;2023-10-13T03:12:36;98180.78;;;16.13;100.00
10474;BME280;5284;50.446;7.904;2023-10-13T03:17:39;98176.44;;;16.12;100.00
10474;BME280;5284;50.446;7.904;2023-10-13T03:22:45;98173.94;;;16.11;100.00
10474;BME280;5284;50.446;7.904;2023-10-13T03:27:50;98165.00;;;16.10;100.00
10474;BME280;5284;50.446;7.904;2023-10-13T03:33:07;98160.63;;;16.09;100.00
10474;BME280;5284;50.446;7.904;2023-10-13T03:38:11;98163.31;;;16.09;100.00
10474;BME280;5284;50.446;7.904;2023-10-13T03:43:20;98150.72;;;16.10;100.00
10474;BME280;5284;50.446;7.904;2023-10-13T03:48:24;98154.06;;;16.12;100.00
10474;BME280;5284;50.446;7.904;2023-10-13T03:53:53;98147.69;;;16.13;100.00
10474;BME280;5284;50.446;7.904;2023-10-13T03:58:59;98137.75;;;16.13;100.00
10474;BME280;5284;50.446;7.904;2023-10-13T04:04:07;98144.63;;;16.16;100.00
10474;BME280;5284;50.446;7.904;2023-10-13T04:09:14;98134.53;;;16.18;100.00
10474;BME280;5284;50.446;7.904;2023-10-13T04:14:38;98127.47;;;16.17;100.00
10474;BME280;5284;50.446;7.904;2023-10-13T04:20:17;98130.16;;;16.17;100.00
10474;BME280;5284;50.446;7.904;2023-10-13T04:25:40;98115.72;;;16.18;100.00
10474;BME280;5284;50.446;7.904;2023-10-13T04:31:08;98112.84;;;16.19;100.00
10474;BME280;5284;50.446;7.904;2023-10-13T04:36:26;98098.91;;;16.16;100.00
10474;BME280;5284;50.446;7.904;2023-10-13T04:41:47;98092.50;;;16.17;100.00
10474;BME280;5284;50.446;7.904;2023-10-13T04:47:01;98082.91;;;16.14;100.00
10474;BME280;5284;50.446;7.904;2023-10-13T04:52:11;98075.03;;;16.13;100.00
10474;BME280;5284;50.446;7.904;2023-10-13T04:57:28;98068.16;;;16.10;100.00
10474;BME280;5284;50.446;7.904;2023-10-13T05:02:37;98069.81;;;16.11;100.00
10474;BME280;5284;50.446;7.904;2023-10-13T05:08:17;98057.88;;;16.14;100.00
10474;BME280;5284;50.446;7.904;2023-10-13T05:13:45;98056.88;;;16.15;100.00
10474;BME280;5284;50.446;7.904;2023-10-13T05:19:06;98062.25;;;16.15;100.00
10474;BME280;5284;50.446;7.904;2023-10-13T05:24:29;98051.97;;;16.18;100.00
10474;BME280;5284;50.446;7.904;2023-10-13T05:29:51;98057.16;;;16.20;100.00
10474;BME280;5284;50.446;7.904;2023-10-13T05:35:15;98057.00;;;16.21;100.00
10474;BME280;5284;50.446;7.904;2023-10-13T05:40:36;98070.25;;;16.23;100.00
10474;BME280;5284;50.446;7.904;2023-10-13T05:46:01;98062.19;;;16.23;100.00
10474;BME280;5284;50.446;7.904;2023-10-13T05:51:38;98061.19;;;16.24;100.00
10474;BME280;5284;50.446;7.904;2023-10-13T05:56:50;98057.66;;;16.23;100.00
10474;BME280;5284;50.446;7.904;2023-10-13T06:02:12;98053.97;;;16.24;100.00
10474;BME280;5284;50.446;7.904;2023-10-13T06:07:34;98070.75;;;16.26;100.00
10474;BME280;5284;50.446;7.904;2023-10-13T06:12:55;98068.72;;;16.28;100.00
10474;BME280;5284;50.446;7.904;2023-10-13T06:18:15;98062.34;;;16.29;100.00
10474;BME280;5284;50.446;7.904;2023-10-13T06:23:38;98066.22;;;16.35;100.00
10474;BME280;5284;50.446;7.904;2023-10-13T06:28:58;98066.50;;;16.40;100.00
10474;BME280;5284;50.446;7.904;2023-10-13T06:34:01;98046.94;;;16.46;100.00
10474;BME280;5284;50.446;7.904;2023-10-13T06:39:07;98039.00;;;16.52;100.00
10474;BME280;5284;50.446;7.904;2023-10-13T06:44:36;98042.81;;;16.58;100.00
10474;BME280;5284;50.446;7.904;2023-10-13T06:49:41;98044.31;;;16.60;100.00
10474;BME280;5284;50.446;7.904;2023-10-13T06:54:46;98050.81;;;16.66;100.00
10474;BME280;5284;50.446;7.904;2023-10-13T06:59:49;98057.63;;;16.76;100.00
10474;BME280;5284;50.446;7.904;2023-10-13T07:04:55;98062.50;;;16.81;100.00
10474;BME280;5284;50.446;7.904;2023-10-13T07:10:12;98057.41;;;16.86;100.00
10474;BME280;5284;50.446;7.904;2023-10-13T07:15:15;98057.88;;;16.89;100.00
10474;BME280;5284;50.446;7.904;2023-10-13T07:20:22;98054.34;;;16.88;100.00
10474;BME280;5284;50.446;7.904;2023-10-13T07:25:36;98057.69;;;16.90;100.00
10474;BME280;5284;50.446;7.904;2023-10-13T07:30:42;98045.59;;;16.87;100.00
10474;BME280;5284;50.446;7.904;2023-10-13T07:35:59;98036.50;;;16.88;100.00
10474;BME280;5284;50.446;7.904;2023-10-13T07:41:03;98031.59;;;16.91;100.00
10474;BME280;5284;50.446;7.904;2023-10-13T07:46:10;98042.41;;;17.05;100.00
10474;BME280;5284;50.446;7.904;2023-10-13T07:51:14;98030.69;;;17.13;100.00
10474;BME280;5284;50.446;7.904;2023-10-13T07:56:20;98018.72;;;17.15;100.00
10474;BME280;5284;50.446;7.904;2023-10-13T08:01:23;98018.88;;;17.36;100.00
10474;BME280;5284;50.446;7.904;2023-10-13T08:06:27;98025.09;;;17.51;100.00
10474;BME280;5284;50.446;7.904;2023-10-13T08:11:31;98024.72;;;17.69;100.00
10474;BME280;5284;50.446;7.904;2023-10-13T08:16:37;98010.56;;;17.81;100.00
10474;BME280;5284;50.446;7.904;2023-10-13T08:21:55;98005.06;;;17.89;100.00
10474;BME280;5284;50.446;7.904;2023-10-13T08:27:06;97997.66;;;18.12;100.00
10474;BME280;5284;50.446;7.904;2023-10-13T08:32:28;97987.81;;;18.40;100.00
10474;BME280;5284;50.446;7.904;2023-10-13T08:37:47;97985.63;;;18.50;100.00
10474;BME280;5284;50.446;7.904;2023-10-13T08:43:17;97987.22;;;18.65;100.00
10474;BME280;5284;50.446;7.904;2023-10-13T08:48:20;97983.09;;;18.69;100.00
10474;BME280;5284;50.446;7.904;2023-10-13T08:53:28;97994.47;;;19.13;100.00
10474;BME280;5284;50.446;7.904;2023-10-13T08:58:36;97980.41;;;19.18;100.00
10474;BME280;5284;50.446;7.904;2023-10-13T09:04:08;97993.31;;;19.50;100.00
10474;BME280;5284;50.446;7.904;2023-10-13T09:09:24;97960.22;;;19.54;100.00
10474;BME280;5284;50.446;7.904;2023-10-13T09:14:38;97976.22;;;19.90;100.00
10474;BME280;5284;50.446;7.904;2023-10-13T09:19:47;97967.47;;;19.88;100.00
10474;BME280;5284;50.446;7.904;2023-10-13T09:24:50;97960.31;;;20.20;100.00
10474;BME280;5284;50.446;7.904;2023-10-13T09:29:59;97956.22;;;20.76;100.00
10474;BME280;5284;50.446;7.904;2023-10-13T09:35:17;97953.34;;;20.84;100.00
10474;BME280;5284;50.446;7.904;2023-10-13T09:40:20;97952.81;;;21.52;100.00
10474;BME280;5284;50.446;7.904;2023-10-13T09:45:36;97950.31;;;22.14;100.00
10474;BME280;5284;50.446;7.904;2023-10-13T09:50:43;97955.66;;;22.27;100.00
10474;BME280;5284;50.446;7.904;2023-10-13T09:55:50;97948.03;;;22.42;100.00
10474;BME280;5284;50.446;7.904;2023-10-13T10:01:01;97939.81;;;22.17;100.00
10474;BME280;5284;50.446;7.904;2023-10-13T10:06:21;97947.19;;;22.04;100.00
10474;BME280;5284;50.446;7.904;2023-10-13T10:17:13;97931.06;;;21.72;100.00
10474;BME280;5284;50.446;7.904;2023-10-13T10:22:27;97929.84;;;21.61;100.00
10474;BME280;5284;50.446;7.904;2023-10-13T10:27:33;97913.16;;;21.51;100.00
10474;BME280;5284;50.446;7.904;2023-10-13T10:32:42;97917.13;;;21.99;100.00
10474;BME280;5284;50.446;7.904;2023-10-13T10:37:50;97912.22;;;21.83;100.00
10474;BME280;5284;50.446;7.904;2023-10-13T10:42:54;97905.78;;;21.71;100.00
10474;BME280;5284;50.446;7.904;2023-10-13T10:47:59;97896.84;;;21.64;100.00
10474;BME280;5284;50.446;7.904;2023-10-13T10:53:19;97890.34;;;21.72;100.00
10474;BME280;5284;50.446;7.904;2023-10-13T10:58:24;97887.81;;;21.70;100.00
10474;BME280;5284;50.446;7.904;2023-10-13T11:03:32;97882.34;;;21.83;100.00
10474;BME280;5284;50.446;7.904;2023-10-13T11:08:39;97880.22;;;22.22;100.00
10474;BME280;5284;50.446;7.904;2023-10-13T11:13:45;97864.34;;;22.19;100.00
10474;BME280;5284;50.446;7.904;2023-10-13T11:19:01;97861.72;;;23.11;97.05
10474;BME280;5284;50.446;7.904;2023-10-13T11:24:07;97848.94;;;23.65;92.09
10474;BME280;5284;50.446;7.904;2023-10-13T11:29:11;97860.44;;;24.67;85.99
10474;BME280;5284;50.446;7.904;2023-10-13T11:34:16;97855.41;;;24.11;82.36
10474;BME280;5284;50.446;7.904;2023-10-13T11:39:19;97851.81;;;24.70;80.18
10474;BME280;5284;50.446;7.904;2023-10-13T11:44:26;97841.72;;;25.04;73.14
10474;BME280;5284;50.446;7.904;2023-10-13T11:49:46;97841.47;;;24.60;80.16
10474;BME280;5284;50.446;7.904;2023-10-13T11:54:50;97833.31;;;24.72;75.49
10474;BME280;5284;50.446;7.904;2023-10-13T11:59:53;97834.13;;;25.06;76.20
10474;BME280;5284;50.446;7.904;2023-10-13T12:04:59;97841.13;;;25.02;75.06
10474;BME280;5284;50.446;7.904;2023-10-13T12:10:13;97835.72;;;24.39;77.39
10474;BME280;5284;50.446;7.904;2023-10-13T12:15:36;97835.06;;;24.78;76.77
10474;BME280;5284;50.446;7.904;2023-10-13T12:20:52;97825.38;;;24.29;77.31
10474;BME280;5284;50.446;7.904;2023-10-13T12:25:54;97808.50;;;24.50;74.19
10474;BME280;5284;50.446;7.904;2023-10-13T12:31:03;97810.84;;;25.04;70.78
10474;BME280;5284;50.446;7.904;2023-10-13T12:36:10;97803.28;;;25.17;63.91
10474;BME280;5284;50.446;7.904;2023-10-13T12:41:18;97807.22;;;24.87;65.54
10474;BME280;5284;50.446;7.904;2023-10-13T12:46:39;97799.84;;;24.88;63.62
10474;BME280;5284;50.446;7.904;2023-10-13T12:51:57;97791.53;;;24.94;64.75
10474;BME280;5284;50.446;7.904;2023-10-13T12:57:00;97789.13;;;25.32;63.47
10474;BME280;5284;50.446;7.904;2023-10-13T13:02:04;97791.47;;;25.40;62.30
10474;BME280;5284;50.446;7.904;2023-10-13T13:07:11;97788.31;;;25.59;63.72
10474;BME280;5284;50.446;7.904;2023-10-13T13:12:15;97775.19;;;25.33;63.14
10474;BME280;5284;50.446;7.904;2023-10-13T13:17:18;97769.63;;;25.40;62.98
10474;BME280;5284;50.446;7.904;2023-10-13T13:22:23;97761.63;;;24.99;60.50
10474;BME280;5284;50.446;7.904;2023-10-13T13:27:27;97752.41;;;25.39;62.30
10474;BME280;5284;50.446;7.904;2023-10-13T13:32:30;97751.28;;;25.12;58.85
10474;BME280;5284;50.446;7.904;2023-10-13T13:37:35;97732.53;;;25.04;59.93
10474;BME280;5284;50.446;7.904;2023-10-13T13:42:39;97727.25;;;24.64;60.94
10474;BME280;5284;50.446;7.904;2023-10-13T13:47:42;97715.88;;;25.29;61.31
10474;BME280;5284;50.446;7.904;2023-10-13T13:52:46;97715.97;;;25.34;61.79
10474;BME280;5284;50.446;7.904;2023-10-13T13:57:50;97718.19;;;24.97;62.05
10474;BME280;5284;50.446;7.904;2023-10-13T14:02:53;97719.13;;;25.03;61.19
10474;BME280;5284;50.446;7.904;2023-10-13T14:07:58;97703.28;;;24.66;60.76
10474;BME280;5284;50.446;7.904;2023-10-13T14:13:02;97700.81;;;24.64;63.36
10474;BME280;5284;50.446;7.904;2023-10-13T14:18:14;97697.22;;;24.06;66.42
10474;BME280;5284;50.446;7.904;2023-10-13T14:23:20;97678.63;;;24.03;66.98
10474;BME280;5284;50.446;7.904;2023-10-13T14:28:24;97670.81;;;23.95;65.70
10474;BME280;5284;50.446;7.904;2023-10-13T14:33:36;97667.00;;;23.96;64.76
10474;BME280;5284;50.446;7.904;2023-10-13T14:38:42;97667.50;;;24.16;67.04
10474;BME280;5284;50.446;7.904;2023-10-13T14:43:46;97670.94;;;24.23;68.20
10474;BME280;5284;50.446;7.904;2023-10-13T14:48:52;97655.28;;;23.84;69.81
10474;BME280;5284;50.446;7.904;2023-10-13T14:53:58;97648.47;;;23.75;67.15
10474;BME280;5284;50.446;7.904;2023-10-13T14:59:02;97655.81;;;23.63;71.34
10474;BME280;5284;50.446;7.904;2023-10-13T15:04:06;97642.50;;;23.44;72.11
10474;BME280;5284;50.446;7.904;2023-10-13T15:09:11;97632.59;;;23.20;81.65
10474;BME280;5284;50.446;7.904;2023-10-13T15:14:14;97632.50;;;22.97;77.22
10474;BME280;5284;50.446;7.904;2023-10-13T15:19:17;97618.25;;;22.84;73.58
10474;BME280;5284;50.446;7.904;2023-10-13T15:24:21;97624.47;;;22.55;78.25
10474;BME280;5284;50.446;7.904;2023-10-13T15:29:34;97623.53;;;22.43;83.45
10474;BME280;5284;50.446;7.904;2023-10-13T15:34:40;97615.06;;;22.33;84.95
10474;BME280;5284;50.446;7.904;2023-10-13T15:39:45;97607.06;;;22.20;89.25
10474;BME280;5284;50.446;7.904;2023-10-13T15:44:48;97603.53;;;22.01;91.47
10474;BME280;5284;50.446;7.904;2023-10-13T15:49:51;97610.34;;;21.86;94.07
10474;BME280;5284;50.446;7.904;2023-10-13T15:54:57;97601.72;;;21.71;93.77
10474;BME280;5284;50.446;7.904;2023-10-13T16:00:00;97593.06;;;21.56;94.58
10474;BME280;5284;50.446;7.904;2023-10-13T16:05:12;97577.56;;;21.39;96.15
10474;BME280;5284;50.446;7.904;2023-10-13T16:10:17;97570.97;;;21.28;96.49
10474;BME280;5284;50.446;7.904;2023-10-13T16:15:19;97570.03;;;21.16;97.84
10474;BME280;5284;50.446;7.904;2023-10-13T16:20:24;97572.81;;;21.03;99.78
10474;BME280;5284;50.446;7.904;2023-10-13T16:25:28;97557.91;;;20.88;100.00
10474;BME280;5284;50.446;7.904;2023-10-13T16:30:31;97556.06;;;20.75;100.00
10474;BME280;5284;50.446;7.904;2023-10-13T16:35:34;97550.31;;;20.65;100.00
10474;BME280;5284;50.446;7.904;2023-10-13T16:40:39;97551.38;;;20.58;100.00
10474;BME280;5284;50.446;7.904;2023-10-13T16:45:43;97535.84;;;20.40;100.00
10474;BME280;5284;50.446;7.904;2023-10-13T16:50:49;97536.94;;;20.33;100.00
10474;BME280;5284;50.446;7.904;2023-10-13T16:55:53;97532.78;;;20.24;100.00
10474;BME280;5284;50.446;7.904;2023-10-13T17:00:56;97541.41;;;20.14;100.00
10474;BME280;5284;50.446;7.904;2023-10-13T17:06:00;97531.63;;;20.07;100.00
10474;BME280;5284;50.446;7.904;2023-10-13T17:11:09;97524.38;;;20.01;100.00
10474;BME280;5284;50.446;7.904;2023-10-13T17:16:14;97525.81;;;19.91;100.00
10474;BME280;5284;50.446;7.904;2023-10-13T17:21:21;97517.75;;;19.78;100.00
10474;BME280;5284;50.446;7.904;2023-10-13T17:26:27;97516.72;;;19.66;100.00
10474;BME280;5284;50.446;7.904;2023-10-13T17:31:32;97507.00;;;19.52;100.00
10474;BME280;5284;50.446;7.904;2023-10-13T17:36:36;97504.50;;;19.50;100.00
10474;BME280;5284;50.446;7.904;2023-10-13T17:41:41;97490.56;;;19.40;100.00
10474;BME280;5284;50.446;7.904;2023-10-13T17:46:46;97491.00;;;19.37;100.00
10474;BME280;5284;50.446;7.904;2023-10-13T17:51:49;97496.41;;;19.31;100.00
10474;BME280;5284;50.446;7.904;2023-10-13T17:56:53;97491.22;;;19.23;100.00
10474;BME280;5284;50.446;7.904;2023-10-13T18:01:56;97490.00;;;19.19;100.00
10474;BME280;5284;50.446;7.904;2023-10-13T18:06:59;97478.94;;;19.14;100.00
10474;BME280;5284;50.446;7.904;2023-10-13T18:12:04;97476.03;;;19.09;100.00
10474;BME280;5284;50.446;7.904;2023-10-13T18:17:08;97463.56;;;19.01;100.00
10474;BME280;5284;50.446;7.904;2023-10-13T18:22:10;97459.63;;;18.91;100.00
10474;BME280;5284;50.446;7.904;2023-10-13T18:27:18;97451.94;;;18.88;100.00
10474;BME280;5284;50.446;7.904;2023-10-13T18:32:21;97434.91;;;18.81;100.00
10474;BME280;5284;50.446;7.904;2023-10-13T18:37:24;97450.91;;;18.76;100.00
10474;BME280;5284;50.446;7.904;2023-10-13T18:42:28;97445.69;;;18.68;100.00
10474;BME280;5284;50.446;7.904;2023-10-13T18:47:31;97414.72;;;18.64;100.00
10474;BME280;5284;50.446;7.904;2023-10-13T18:52:34;97426.78;;;18.61;100.00
10474;BME280;5284;50.446;7.904;2023-10-13T18:57:40;97416.41;;;18.58;100.00
10474;BME280;5284;50.446;7.904;2023-10-13T19:02:46;97409.78;;;18.54;100.00
10474;BME280;5284;50.446;7.904;2023-10-13T19:07:52;97406.84;;;18.62;100.00
10474;BME280;5284;50.446;7.904;2023-10-13T19:12:56;97410.53;;;19.13;93.87
10474;BME280;5284;50.446;7.904;2023-10-13T19:18:01;97407.84;;;19.07;94.27
10474;BME280;5284;50.446;7.904;2023-10-13T19:23:04;97398.50;;;19.16;92.86
10474;BME280;5284;50.446;7.904;2023-10-13T19:28:08;97412.78;;;19.36;89.56
10474;BME280;5284;50.446;7.904;2023-10-13T19:33:13;97414.22;;;19.38;90.10
10474;BME280;5284;50.446;7.904;2023-10-13T19:38:16;97421.81;;;19.74;86.00
10474;BME280;5284;50.446;7.904;2023-10-13T19:43:21;97431.63;;;19.68;86.95
10474;BME280;5284;50.446;7.904;2023-10-13T19:48:24;97421.22;;;19.65;87.69
10474;BME280;5284;50.446;7.904;2023-10-13T19:53:28;97423.97;;;20.03;82.11
10474;BME280;5284;50.446;7.904;2023-10-13T19:58:32;97415.84;;;20.03;82.06
10474;BME280;5284;50.446;7.904;2023-10-13T20:03:37;97420.00;;;20.12;81.06
10474;BME280;5284;50.446;7.904;2023-10-13T20:08:42;97430.59;;;20.13;81.97
10474;BME280;5284;50.446;7.904;2023-10-13T20:13:47;97432.59;;;20.24;80.14
10474;BME280;5284;50.446;7.904;2023-10-13T20:18:53;97418.34;;;20.41;78.97
10474;BME280;5284;50.446;7.904;2023-10-13T20:24:00;97408.13;;;20.43;79.08
10474;BME280;5284;50.446;7.904;2023-10-13T20:29:04;97407.72;;;20.40;79.67
10474;BME280;5284;50.446;7.904;2023-10-13T20:34:07;97414.50;;;20.49;79.03
10474;BME280;5284;50.446;7.904;2023-10-13T20:39:14;97407.38;;;20.54;78.40
10474;BME280;5284;50.446;7.904;2023-10-13T20:44:26;97395.47;;;20.62;78.28
10474;BME280;5284;50.446;7.904;2023-10-13T20:49:30;97407.28;;;20.67;77.77
10474;BME280;5284;50.446;7.904;2023-10-13T20:54:34;97406.34;;;20.80;76.56
10474;BME280;5284;50.446;7.904;2023-10-13T20:59:38;97384.91;;;20.78;77.55
10474;BME280;5284;50.446;7.904;2023-10-13T21:04:42;97387.94;;;20.88;76.51
10474;BME280;5284;50.446;7.904;2023-10-13T21:09:46;97385.09;;;20.83;77.00
10474;BME280;5284;50.446;7.904;2023-10-13T21:14:50;97391.88;;;20.92;75.49
10474;BME280;5284;50.446;7.904;2023-10-13T21:19:55;97389.22;;;20.86;75.97
10474;BME280;5284;50.446;7.904;2023-10-13T21:24:58;97384.41;;;20.88;75.86
10474;BME280;5284;50.446;7.904;2023-10-13T21:30:08;97388.75;;;20.89;75.56
10474;BME280;5284;50.446;7.904;2023-10-13T21:35:13;97379.41;;;20.85;75.94
10474;BME280;5284;50.446;7.904;2023-10-13T21:40:19;97384.44;;;20.81;76.60
10474;BME280;5284;50.446;7.904;2023-10-13T21:45:23;97393.72;;;20.67;78.96
10474;BME280;5284;50.446;7.904;2023-10-13T21:50:26;97405.63;;;20.66;79.73
10474;BME280;5284;50.446;7.904;2023-10-13T21:55:29;97412.69;;;20.67;80.87
10474;BME280;5284;50.446;7.904;2023-10-13T22:00:33;97384.00;;;20.60;82.23
10474;BME280;5284;50.446;7.904;2023-10-13T22:05:55;97372.78;;;20.56;84.12
10474;BME280;5284;50.446;7.904;2023-10-13T22:10:59;97356.56;;;20.50;85.25
10474;BME280;5284;50.446;7.904;2023-10-13T22:16:07;97363.31;;;20.41;86.66
10474;BME280;5284;50.446;7.904;2023-10-13T22:21:13;97350.06;;;20.33;88.20
10474;BME280;5284;50.446;7.904;2023-10-13T22:26:21;97358.44;;;20.25;88.88
10474;BME280;5284;50.446;7.904;2023-10-13T22:31:25;97338.44;;;20.26;89.08
10474;BME280;5284;50.446;7.904;2023-10-13T22:36:28;97339.97;;;20.15;90.68
10474;BME280;5284;50.446;7.904;2023-10-13T22:41:31;97346.66;;;20.13;91.02
10474;BME280;5284;50.446;7.904;2023-10-13T22:46:37;97367.09;;;20.09;91.03
10474;BME280;5284;50.446;7.904;2023-10-13T22:51:41;97348.31;;;20.14;89.36
10474;BME280;5284;50.446;7.904;2023-10-13T22:56:45;97328.09;;;20.16;88.30
10474;BME280;5284;50.446;7.904;2023-10-13T23:01:52;97310.41;;;20.14;87.96
10474;BME280;5284;50.446;7.904;2023-10-13T23:07:01;97319.28;;;20.21;87.20
10474;BME280;5284;50.446;7.904;2023-10-13T23:12:15;97316.88;;;20.13;88.04
10474;BME280;5284;50.446;7.904;2023-10-13T23:17:19;97316.09;;;20.06;88.13
10474;BME280;5284;50.446;7.904;2023-10-13T23:22:23;97326.06;;;20.06;87.84
10474;BME280;5284;50.446;7.904;2023-10-13T23:27:26;97318.19;;;19.98;87.86
10474;BME280;5284;50.446;7.904;2023-10-13T23:32:31;97322.34;;;20.00;87.68
10474;BME280;5284;50.446;7.904;2023-10-13T23:37:34;97315.25;;;20.06;86.46
10474;BME280;5284;50.446;7.904;2023-10-13T23:42:44;97297.59;;;19.97;87.51
10474;BME280;5284;50.446;7.904;2023-10-13T23:47:59;97306.47;;;20.10;85.85
10474;BME280;5284;50.446;7.904;2023-10-13T23:53:01;97281.53;;;20.02;86.35
10474;BME280;5284;50.446;7.904;2023-10-13T23:58:05;97286.88;;;20.14;83.25
